ADDS METAR Data INFO
IDs: Format: Raw Decoded Include TAF

Data at: 2108 UTC 19 Jul 2018

PMDY 192056Z AUTO 06016G20KT 4SM -RA FEW017 BKN023 BKN031 24/21 A3026 RMK AO2 RAB49 SLP248 P0001 60001 T02440211 53005
PMDY 192026Z AUTO 05015KT 10SM BKN021 26/21 A3026 RMK AO2
PMDY 191956Z AUTO 05013KT 10SM FEW024 26/20 A3026 RMK AO2 SLP246 T02610200
PMDY 191856Z AUTO 05015KT 10SM FEW024 25/19 A3025 RMK AO2 SLP243 T02500194
PMDY 191849Z AUTO 05016KT 10SM FEW024 SCT030 25/20 A3025 RMK AO2
PMDY 191811Z AUTO 05014KT 10SM BKN022 24/20 A3024 RMK AO2
PMDY 191756Z AUTO 05014KT 10SM SCT022 24/20 A3024 RMK AO2 SLP240 60000 T02440200 10244 20233 53005
PMDY 191725Z AUTO 05014KT 10SM SCT024 24/20 A3023 RMK AO2
PMDY 191656Z AUTO 05016KT 10SM BKN024 BKN029 OVC035 24/20 A3022 RMK AO2 RAE1557 SLP234 T02390200
PMDY 191556Z AUTO 06013KT 10SM -RA SCT024 BKN029 OVC049 24/21 A3023 RMK AO2 RAB44 SLP235 P0000 T02390206
PMDY 191523Z AUTO 05013G20KT 10SM SCT024 BKN033 OVC055 24/20 A3023 RMK AO2
PMDY 191510Z AUTO 06012KT 10SM FEW020 BKN025 OVC046 24/20 A3022 RMK AO2
PMDY 191456Z AUTO 07014KT 10SM SCT023 BKN035 OVC055 24/20 A3022 RMK AO2 SLP234 T02390200 56012
PMDY 191412Z AUTO 06014KT 10SM FEW023 SCT028 BKN048 24/19 A3023 RMK AO2
PMDY 191356Z AUTO 06014KT 10SM BKN026 BKN038 OVC048 24/19 A3023 RMK AO2 SLP237 T02440194
PMDY 191339Z AUTO 06015KT 10SM BKN024 BKN037 24/19 A3024 RMK AO2
PMDY 191256Z AUTO 07015KT 10SM SCT026 24/19 A3024 RMK AO2 SLP241 T02440194
PMDY 191219Z AUTO 07015KT 10SM SCT027 24/19 A3025 RMK AO2
PMDY 191156Z AUTO 07012KT 10SM BKN027 24/19 A3026 RMK AO2 SLP246 T02440194 10244 20244 58005
PMDY 191124Z AUTO 07015KT 10SM SCT025 24/20 A3027 RMK AO2
PMDY 191056Z AUTO 07017KT 10SM BKN025 BKN045 24/19 A3027 RMK AO2 SLP250 T02440194 402830239
PMDY 191018Z AUTO 07016KT 10SM FEW027 24/19 A3027 RMK AO2
PMDY 190956Z AUTO 07016KT 10SM BKN027 BKN034 24/19 A3028 RMK AO2 SLP252 T02440194
PMDY 190936Z AUTO 06012KT 10SM BKN027 BKN033 24/19 A3028 RMK AO2
PMDY 190856Z AUTO 06014KT 10SM FEW027 24/19 A3028 RMK AO2 SLP252 T02440194 51011
PMDY 190756Z AUTO 06015KT 10SM SCT029 24/19 A3027 RMK AO2 SLP249 T02440189
PMDY 190733Z AUTO 07014KT 10SM FEW027 24/19 A3026 RMK AO2
PMDY 190656Z AUTO 06014KT 10SM BKN025 24/19 A3025 RMK AO2 SLP244 T02440194
PMDY 190620Z AUTO 06014KT 10SM BKN025 25/19 A3025 RMK AO2
PMDY 190556Z AUTO 06014KT 10SM CLR 26/19 A3024 RMK AO2 SLP241 T02560194 10283 20256 53002
PMDY 190456Z AUTO 07014KT 10SM CLR 27/19 A3024 RMK AO2 SLP239 T02670189
PMDY 190356Z AUTO 07014KT 10SM FEW025 27/19 A3023 RMK AO2 SLP237 T02720194
PMDY 190256Z AUTO 06017KT 10SM FEW025 27/21 A3024 RMK AO2 SLP239 T02720206 56009
PMDY 190156Z AUTO 07018KT 10SM FEW026 28/19 A3025 RMK AO2 SLP242 T02780194
PMDY 190056Z AUTO 06019KT 10SM OVC044 28/20 A3025 RMK AO2 SLP244 T02780200
PMDY 182356Z AUTO 06017KT 10SM SCT024 BKN045 28/21 A3026 RMK AO2 SLP248 60000 T02830206 10283 20239 58000
PMDY 182256Z AUTO 06016G22KT 10SM BKN022 BKN028 OVC050 28/21 A3027 RMK AO2 SLP251 T02780211
PMDY 182156Z AUTO 06016G23KT 10SM BKN020 BKN025 BKN047 28/22 A3028 RMK AO2 RAB02E12 SLP252 P0000 T02780217
PMDY 182141Z AUTO 07018KT 10SM BKN020 BKN040 BKN055 28/21 A3027 RMK AO2 RAB02E12 P0000
PMDY 182056Z AUTO 06014KT 10SM SCT022 SCT031 27/22 A3027 RMK AO2 SLP248 60000 T02720217 51008
PMDY 182037Z AUTO 06017KT 10SM SCT022 BKN028 27/21 A3026 RMK AO2
PMDY 181956Z AUTO 06016G22KT 10SM SCT022 BKN040 26/21 A3026 RMK AO2 SLP247 T02610211
PMDY 181939Z AUTO 06016KT 10SM SCT022 BKN035 OVC042 26/21 A3026 RMK AO2
PMDY 181908Z AUTO 07017G24KT 10SM BKN022 BKN032 OVC043 26/21 A3025 RMK AO2
PMDY 181856Z AUTO 07018G22KT 10SM SCT022 BKN030 OVC044 25/21 A3025 RMK AO2 RAB09E22 SLP243 P0000 T02500211
PMDY 181808Z AUTO 07014KT 8SM SCT020 BKN025 BKN032 24/22 A3024 RMK AO2
PMDY 181756Z AUTO 05013KT 10SM SCT015 SCT021 BKN032 24/21 A3024 RMK AO2 SLP240 T02390211 10250 20239 53010
PMDY 181734Z AUTO 06016KT 10SM SCT016 BKN043 24/21 A3023 RMK AO2
PMDY 181656Z AUTO 06014G21KT 10SM BKN016 24/21 A3022 RMK AO2 SLP234 T02390211
PMDY 181649Z AUTO 06018KT 10SM BKN016 24/22 A3022 RMK AO2
PMDY 181629Z AUTO 06015KT 10SM FEW016 24/21 A3022 RMK AO2
PMDY 181556Z AUTO 06017G22KT 10SM BKN018 OVC029 24/21 A3021 RMK AO2 SLP230 T02440211
PMDY 181523Z AUTO 08017KT 10SM BKN018 24/21 A3021 RMK AO2
PMDY 181456Z AUTO 07017KT 10SM SCT018 24/21 A3021 RMK AO2 SLP229 T02440211 58007
PMDY 181411Z AUTO 08017KT 10SM SCT018 24/21 A3021 RMK AO2
PMDY 181356Z AUTO 07016KT 10SM BKN020 BKN027 BKN046 24/21 A3022 RMK AO2 SLP231 T02440211
PMDY 181318Z AUTO 07017KT 10SM SCT018 BKN042 BKN049 24/21 A3022 RMK AO2
PMDY 181256Z AUTO 07018KT 10SM BKN018 BKN041 OVC048 25/22 A3023 RMK AO2 SLP235 T02500217
PMDY 181224Z AUTO 08017KT 10SM BKN020 BKN044 25/21 A3023 RMK AO2
PMDY 181156Z AUTO 08019KT 10SM SCT020 SCT030 BKN043 25/21 A3023 RMK AO2 SLP236 70007 T02500211 10261 20244 56002
PMDY 181153Z AUTO 08017KT 10SM SCT020 BKN030 BKN043 25/21 A3023 RMK AO2
PMDY 181113Z AUTO 07017KT 10SM BKN020 25/21 A3024 RMK AO2
PMDY 181056Z AUTO 07018KT 10SM SCT020 SCT027 25/21 A3024 RMK AO2 SLP238 T02500211 402890233
PMDY 180956Z AUTO 08020KT 10SM SCT020 25/21 A3024 RMK AO2 SLP239 T02500211
PMDY 180928Z AUTO 07020KT 10SM SCT020 SCT038 25/21 A3024 RMK AO2